sensor_id;sensor_type;location;lat;lon;timestamp;pressure;altitude;pressure_sealevel;temperature;humidity
1954;BME280;977;42.704;23.354;2022-08-19T00:00:36;94869.50;;;23.18;66.40
1954;BME280;977;42.704;23.354;2022-08-19T00:03:03;94869.81;;;23.37;65.96
1954;BME280;977;42.704;23.354;2022-08-19T00:05:32;94884.16;;;23.46;65.89
1954;BME280;977;42.704;23.354;2022-08-19T00:07:57;94877.53;;;23.49;65.30
1954;BME280;977;42.704;23.354;2022-08-19T00:10:23;94875.16;;;23.53;65.60
1954;BME280;977;42.704;23.354;2022-08-19T00:12:49;94881.25;;;23.58;66.26
1954;BME280;977;42.704;23.354;2022-08-19T00:15:18;94882.34;;;23.62;65.91
1954;BME280;977;42.704;23.354;2022-08-19T00:17:44;94883.13;;;23.63;64.68
1954;BME280;977;42.704;23.354;2022-08-19T00:20:13;94887.66;;;23.62;64.87
1954;BME280;977;42.704;23.354;2022-08-19T00:22:42;94886.56;;;23.58;64.42
1954;BME280;977;42.704;23.354;2022-08-19T00:25:08;94894.00;;;23.56;64.28
1954;BME280;977;42.704;23.354;2022-08-19T00:27:34;94884.97;;;23.47;64.25
1954;BME280;977;42.704;23.354;2022-08-19T00:30:00;94895.56;;;23.42;64.45
1954;BME280;977;42.704;23.354;2022-08-19T00:32:27;94889.75;;;23.35;64.96
1954;BME280;977;42.704;23.354;2022-08-19T00:34:53;94897.44;;;23.41;64.71
1954;BME280;977;42.704;23.354;2022-08-19T00:37:21;94893.47;;;23.34;64.40
1954;BME280;977;42.704;23.354;2022-08-19T00:39:48;94883.88;;;23.28;64.67
1954;BME280;977;42.704;23.354;2022-08-19T00:42:14;94887.31;;;23.23;64.20
1954;BME280;977;42.704;23.354;2022-08-19T00:44:40;94876.44;;;23.25;64.49
1954;BME280;977;42.704;23.354;2022-08-19T00:47:06;94879.09;;;23.25;64.01
1954;BME280;977;42.704;23.354;2022-08-19T00:49:37;94882.78;;;23.24;64.32
1954;BME280;977;42.704;23.354;2022-08-19T00:52:07;94882.78;;;23.18;66.26
1954;BME280;977;42.704;23.354;2022-08-19T00:54:35;94879.63;;;23.16;65.55
1954;BME280;977;42.704;23.354;2022-08-19T00:57:05;94880.13;;;23.08;65.99
1954;BME280;977;42.704;23.354;2022-08-19T00:59:31;94879.59;;;23.01;66.61
1954;BME280;977;42.704;23.354;2022-08-19T01:01:59;94867.63;;;22.99;67.04
1954;BME280;977;42.704;23.354;2022-08-19T01:04:24;94875.22;;;22.80;67.38
1954;BME280;977;42.704;23.354;2022-08-19T01:06:50;94880.00;;;22.73;67.89
1954;BME280;977;42.704;23.354;2022-08-19T01:09:17;94877.28;;;22.67;68.31
1954;BME280;977;42.704;23.354;2022-08-19T01:11:44;94881.53;;;22.63;68.41
1954;BME280;977;42.704;23.354;2022-08-19T01:14:10;94881.53;;;22.63;68.33
1954;BME280;977;42.704;23.354;2022-08-19T01:16:38;94878.34;;;22.61;67.98
1954;BME280;977;42.704;23.354;2022-08-19T01:19:15;94882.81;;;22.56;68.72
1954;BME280;977;42.704;23.354;2022-08-19T01:21:49;94882.00;;;22.50;69.23
1954;BME280;977;42.704;23.354;2022-08-19T01:24:16;94883.84;;;22.44;70.31
1954;BME280;977;42.704;23.354;2022-08-19T01:26:43;94874.50;;;22.32;70.89
1954;BME280;977;42.704;23.354;2022-08-19T01:29:10;94874.69;;;22.25;72.17
1954;BME280;977;42.704;23.354;2022-08-19T01:31:35;94867.00;;;22.18;73.64
1954;BME280;977;42.704;23.354;2022-08-19T01:34:03;94882.06;;;22.13;75.18
1954;BME280;977;42.704;23.354;2022-08-19T01:36:33;94873.22;;;22.02;74.91
1954;BME280;977;42.704;23.354;2022-08-19T01:39:01;94872.69;;;22.05;73.50
1954;BME280;977;42.704;23.354;2022-08-19T01:41:27;94863.16;;;22.04;75.71
1954;BME280;977;42.704;23.354;2022-08-19T01:43:54;94870.47;;;21.87;72.62
1954;BME280;977;42.704;23.354;2022-08-19T01:46:21;94876.75;;;21.76;75.88
1954;BME280;977;42.704;23.354;2022-08-19T01:48:46;94873.25;;;21.70;78.59
1954;BME280;977;42.704;23.354;2022-08-19T01:51:12;94878.38;;;21.50;79.86
1954;BME280;977;42.704;23.354;2022-08-19T01:53:39;94873.38;;;21.53;79.78
1954;BME280;977;42.704;23.354;2022-08-19T01:56:05;94876.09;;;21.63;78.85
1954;BME280;977;42.704;23.354;2022-08-19T01:58:34;94883.59;;;21.72;77.95
1954;BME280;977;42.704;23.354;2022-08-19T02:01:03;94882.03;;;21.76;77.29
1954;BME280;977;42.704;23.354;2022-08-19T02:03:29;94878.03;;;21.73;76.60
1954;BME280;977;42.704;23.354;2022-08-19T02:05:59;94882.06;;;21.81;77.09
1954;BME280;977;42.704;23.354;2022-08-19T02:08:26;94888.97;;;21.82;75.61
1954;BME280;977;42.704;23.354;2022-08-19T02:10:53;94883.69;;;21.87;75.16
1954;BME280;977;42.704;23.354;2022-08-19T02:13:19;94881.03;;;21.82;75.84
1954;BME280;977;42.704;23.354;2022-08-19T02:15:44;94891.19;;;21.95;75.85
1954;BME280;977;42.704;23.354;2022-08-19T02:18:10;94877.94;;;21.95;75.92
1954;BME280;977;42.704;23.354;2022-08-19T02:20:36;94880.09;;;21.98;75.55
1954;BME280;977;42.704;23.354;2022-08-19T02:23:03;94881.13;;;21.97;75.49
1954;BME280;977;42.704;23.354;2022-08-19T02:25:28;94887.75;;;21.94;75.70
1954;BME280;977;42.704;23.354;2022-08-19T02:27:53;94882.13;;;21.86;75.82
1954;BME280;977;42.704;23.354;2022-08-19T02:30:20;94880.53;;;21.85;75.58
1954;BME280;977;42.704;23.354;2022-08-19T02:32:46;94880.44;;;21.75;76.05
1954;BME280;977;42.704;23.354;2022-08-19T02:35:13;94887.56;;;21.69;75.98
1954;BME280;977;42.704;23.354;2022-08-19T02:37:40;94889.63;;;21.62;76.59
1954;BME280;977;42.704;23.354;2022-08-19T02:40:24;94890.38;;;21.57;77.27
1954;BME280;977;42.704;23.354;2022-08-19T02:42:50;94891.41;;;21.56;77.69
1954;BME280;977;42.704;23.354;2022-08-19T02:45:15;94890.84;;;21.54;77.88
1954;BME280;977;42.704;23.354;2022-08-19T02:47:41;94890.84;;;21.54;78.00
1954;BME280;977;42.704;23.354;2022-08-19T02:50:08;94890.81;;;21.49;78.06
1954;BME280;977;42.704;23.354;2022-08-19T02:52:35;94896.28;;;21.37;78.70
1954;BME280;977;42.704;23.354;2022-08-19T02:55:00;94887.97;;;21.29;79.65
1954;BME280;977;42.704;23.354;2022-08-19T02:57:26;94894.50;;;21.21;80.26
1954;BME280;977;42.704;23.354;2022-08-19T02:59:53;94901.06;;;21.13;80.75
1954;BME280;977;42.704;23.354;2022-08-19T03:02:19;94903.59;;;21.03;81.55
1954;BME280;977;42.704;23.354;2022-08-19T03:04:44;94893.94;;;20.92;82.51
1954;BME280;977;42.704;23.354;2022-08-19T03:07:13;94894.13;;;20.85;83.09
1954;BME280;977;42.704;23.354;2022-08-19T03:09:39;94891.13;;;20.77;83.62
1954;BME280;977;42.704;23.354;2022-08-19T03:12:05;94894.19;;;20.68;85.05
1954;BME280;977;42.704;23.354;2022-08-19T03:14:32;94894.13;;;20.63;85.75
1954;BME280;977;42.704;23.354;2022-08-19T03:16:58;94894.69;;;20.65;86.36
1954;BME280;977;42.704;23.354;2022-08-19T03:19:23;94886.25;;;20.68;86.80
1954;BME280;977;42.704;23.354;2022-08-19T03:21:50;94889.94;;;20.67;86.30
1954;BME280;977;42.704;23.354;2022-08-19T03:24:16;94888.34;;;20.66;86.98
1954;BME280;977;42.704;23.354;2022-08-19T03:26:45;94887.31;;;20.67;87.09
1954;BME280;977;42.704;23.354;2022-08-19T03:29:12;94887.38;;;20.73;85.76
1954;BME280;977;42.704;23.354;2022-08-19T03:31:39;94894.03;;;20.75;85.52
1954;BME280;977;42.704;23.354;2022-08-19T03:34:04;94892.91;;;20.71;85.56
1954;BME280;977;42.704;23.354;2022-08-19T03:36:30;94901.88;;;20.70;86.57
1954;BME280;977;42.704;23.354;2022-08-19T03:38:59;94900.31;;;20.74;86.64
1954;BME280;977;42.704;23.354;2022-08-19T03:41:27;94900.16;;;20.81;86.59
1954;BME280;977;42.704;23.354;2022-08-19T03:43:54;94902.97;;;20.74;86.34
1954;BME280;977;42.704;23.354;2022-08-19T03:46:25;94904.28;;;20.72;87.32
1954;BME280;977;42.704;23.354;2022-08-19T03:48:53;94911.69;;;20.75;87.01
1954;BME280;977;42.704;23.354;2022-08-19T03:51:38;94915.97;;;20.76;87.36
1954;BME280;977;42.704;23.354;2022-08-19T03:54:10;94920.09;;;20.66;88.37
1954;BME280;977;42.704;23.354;2022-08-19T03:56:39;94925.38;;;20.66;88.72
1954;BME280;977;42.704;23.354;2022-08-19T03:59:07;94924.38;;;20.73;88.32
1954;BME280;977;42.704;23.354;2022-08-19T04:01:34;94931.84;;;20.76;87.72
1954;BME280;977;42.704;23.354;2022-08-19T04:04:00;94930.16;;;20.91;87.50
1954;BME280;977;42.704;23.354;2022-08-19T04:06:29;94924.56;;;20.88;87.54
1954;BME280;977;42.704;23.354;2022-08-19T04:08:56;94933.72;;;21.02;86.93
1954;BME280;977;42.704;23.354;2022-08-19T04:11:25;94931.19;;;21.12;85.63
1954;BME280;977;42.704;23.354;2022-08-19T04:13:52;94924.91;;;21.18;84.40
1954;BME280;977;42.704;23.354;2022-08-19T04:16:19;94937.19;;;21.30;84.21
1954;BME280;977;42.704;23.354;2022-08-19T04:18:46;94935.72;;;21.39;83.81
1954;BME280;977;42.704;23.354;2022-08-19T04:21:21;94932.38;;;21.49;82.95
1954;BME280;977;42.704;23.354;2022-08-19T04:23:47;94936.44;;;21.56;81.87
1954;BME280;977;42.704;23.354;2022-08-19T04:26:22;94944.50;;;21.72;80.98
1954;BME280;977;42.704;23.354;2022-08-19T04:28:48;94950.06;;;21.70;80.49
1954;BME280;977;42.704;23.354;2022-08-19T04:31:20;94939.75;;;21.74;79.89
1954;BME280;977;42.704;23.354;2022-08-19T04:33:46;94941.91;;;21.77;79.92
1954;BME280;977;42.704;23.354;2022-08-19T04:36:17;94943.31;;;21.84;79.44
1954;BME280;977;42.704;23.354;2022-08-19T04:38:50;94954.56;;;22.02;78.49
1954;BME280;977;42.704;23.354;2022-08-19T04:41:17;94942.38;;;22.01;78.33
1954;BME280;977;42.704;23.354;2022-08-19T04:44:02;94936.97;;;22.17;77.57
1954;BME280;977;42.704;23.354;2022-08-19T04:46:29;94941.25;;;22.29;76.75
1954;BME280;977;42.704;23.354;2022-08-19T04:48:56;94944.53;;;22.41;76.21
1954;BME280;977;42.704;23.354;2022-08-19T04:51:22;94940.06;;;22.47;75.15
1954;BME280;977;42.704;23.354;2022-08-19T04:53:50;94936.34;;;22.48;75.43
1954;BME280;977;42.704;23.354;2022-08-19T04:56:19;94940.09;;;22.57;74.77
1954;BME280;977;42.704;23.354;2022-08-19T04:58:46;94941.81;;;22.78;73.84
1954;BME280;977;42.704;23.354;2022-08-19T05:01:21;94936.81;;;22.87;72.79
1954;BME280;977;42.704;23.354;2022-08-19T05:03:47;94947.53;;;23.02;72.54
1954;BME280;977;42.704;23.354;2022-08-19T05:06:15;94945.44;;;23.19;72.16
1954;BME280;977;42.704;23.354;2022-08-19T05:08:42;94953.69;;;23.23;71.39
1954;BME280;977;42.704;23.354;2022-08-19T05:11:15;94947.59;;;23.28;70.17
1954;BME280;977;42.704;23.354;2022-08-19T05:13:42;94953.47;;;23.30;69.68
1954;BME280;977;42.704;23.354;2022-08-19T05:16:10;94952.13;;;23.32;70.25
1954;BME280;977;42.704;23.354;2022-08-19T05:18:36;94950.84;;;23.60;69.51
1954;BME280;977;42.704;23.354;2022-08-19T05:21:21;94959.19;;;24.00;67.61
1954;BME280;977;42.704;23.354;2022-08-19T05:24:06;94957.56;;;24.39;65.86
1954;BME280;977;42.704;23.354;2022-08-19T05:26:36;94952.75;;;24.62;64.41
1954;BME280;977;42.704;23.354;2022-08-19T05:29:02;94935.91;;;24.82;63.19
1954;BME280;977;42.704;23.354;2022-08-19T05:31:28;94957.69;;;24.99;63.02
1954;BME280;977;42.704;23.354;2022-08-19T05:33:54;94945.91;;;25.20;61.89
1954;BME280;977;42.704;23.354;2022-08-19T05:36:21;94956.53;;;25.26;61.15
1954;BME280;977;42.704;23.354;2022-08-19T05:38:46;94942.88;;;25.37;61.49
1954;BME280;977;42.704;23.354;2022-08-19T05:41:14;94956.63;;;25.60;60.80
1954;BME280;977;42.704;23.354;2022-08-19T05:43:40;94946.09;;;25.73;60.96
1954;BME280;977;42.704;23.354;2022-08-19T05:46:07;94947.50;;;26.05;59.78
1954;BME280;977;42.704;23.354;2022-08-19T05:48:35;94950.03;;;26.25;59.46
1954;BME280;977;42.704;23.354;2022-08-19T05:51:07;94946.81;;;26.23;59.24
1954;BME280;977;42.704;23.354;2022-08-19T05:53:33;94944.00;;;26.44;58.98
1954;BME280;977;42.704;23.354;2022-08-19T05:56:07;94964.13;;;26.60;58.78
1954;BME280;977;42.704;23.354;2022-08-19T05:58:34;94951.09;;;26.83;57.34
1954;BME280;977;42.704;23.354;2022-08-19T06:01:00;94942.03;;;26.79;57.12
1954;BME280;977;42.704;23.354;2022-08-19T06:03:34;94958.34;;;27.01;56.25
1954;BME280;977;42.704;23.354;2022-08-19T06:06:00;94952.31;;;27.14;55.73
1954;BME280;977;42.704;23.354;2022-08-19T06:08:28;94961.69;;;27.36;54.82
1954;BME280;977;42.704;23.354;2022-08-19T06:10:54;94950.94;;;27.41;54.79
1954;BME280;977;42.704;23.354;2022-08-19T06:13:21;94956.44;;;27.68;53.86
1954;BME280;977;42.704;23.354;2022-08-19T06:15:48;94964.75;;;27.67;54.11
1954;BME280;977;42.704;23.354;2022-08-19T06:18:14;94959.28;;;27.15;55.06
1954;BME280;977;42.704;23.354;2022-08-19T06:20:41;94958.25;;;26.87;56.95
1954;BME280;977;42.704;23.354;2022-08-19T06:23:06;94962.44;;;27.17;55.80
1954;BME280;977;42.704;23.354;2022-08-19T06:25:33;94956.69;;;27.10;54.56
1954;BME280;977;42.704;23.354;2022-08-19T06:27:58;94956.25;;;27.22;54.72
1954;BME280;977;42.704;23.354;2022-08-19T06:30:24;94960.03;;;27.40;53.86
1954;BME280;977;42.704;23.354;2022-08-19T06:32:50;94960.63;;;27.74;52.58
1954;BME280;977;42.704;23.354;2022-08-19T06:35:15;94961.56;;;28.02;51.88
1954;BME280;977;42.704;23.354;2022-08-19T06:37:42;94975.00;;;28.49;50.01
1954;BME280;977;42.704;23.354;2022-08-19T06:40:08;94968.69;;;28.72;49.09
1954;BME280;977;42.704;23.354;2022-08-19T06:42:36;94977.75;;;28.90;49.57
1954;BME280;977;42.704;23.354;2022-08-19T06:45:04;94972.31;;;29.23;48.64
1954;BME280;977;42.704;23.354;2022-08-19T06:47:30;94958.06;;;29.50;47.93
1954;BME280;977;42.704;23.354;2022-08-19T06:49:58;94962.34;;;29.51;47.52
1954;BME280;977;42.704;23.354;2022-08-19T06:52:35;94970.78;;;29.58;47.12
1954;BME280;977;42.704;23.354;2022-08-19T06:55:01;94962.16;;;29.61;47.57
1954;BME280;977;42.704;23.354;2022-08-19T06:57:27;94964.63;;;29.94;46.69
1954;BME280;977;42.704;23.354;2022-08-19T06:59:53;94964.22;;;30.23;46.18
1954;BME280;977;42.704;23.354;2022-08-19T07:02:21;94966.84;;;30.37;45.36
1954;BME280;977;42.704;23.354;2022-08-19T07:04:46;94972.34;;;30.32;45.59
1954;BME280;977;42.704;23.354;2022-08-19T07:07:14;94984.31;;;30.25;45.59
1954;BME280;977;42.704;23.354;2022-08-19T07:09:43;94980.13;;;30.64;44.68
1954;BME280;977;42.704;23.354;2022-08-19T07:12:11;94977.56;;;30.90;44.17
1954;BME280;977;42.704;23.354;2022-08-19T07:14:38;94970.16;;;30.96;43.84
1954;BME280;977;42.704;23.354;2022-08-19T07:17:06;94971.19;;;31.17;43.37
1954;BME280;977;42.704;23.354;2022-08-19T07:19:32;94975.53;;;31.36;43.08
1954;BME280;977;42.704;23.354;2022-08-19T07:22:02;94970.53;;;31.60;42.31
1954;BME280;977;42.704;23.354;2022-08-19T07:24:28;94973.75;;;31.88;42.38
1954;BME280;977;42.704;23.354;2022-08-19T07:26:56;94972.97;;;32.05;41.20
1954;BME280;977;42.704;23.354;2022-08-19T07:29:27;94972.31;;;32.17;41.78
1954;BME280;977;42.704;23.354;2022-08-19T07:31:54;94969.91;;;31.80;41.56
1954;BME280;977;42.704;23.354;2022-08-19T07:34:25;94974.69;;;31.84;41.39
1954;BME280;977;42.704;23.354;2022-08-19T07:36:51;94955.47;;;31.50;41.66
1954;BME280;977;42.704;23.354;2022-08-19T07:39:23;94969.38;;;31.35;43.03
1954;BME280;977;42.704;23.354;2022-08-19T07:41:49;94963.41;;;31.55;42.58
1954;BME280;977;42.704;23.354;2022-08-19T07:44:16;94956.59;;;31.75;42.38
1954;BME280;977;42.704;23.354;2022-08-19T07:46:45;94961.81;;;31.54;41.71
1954;BME280;977;42.704;23.354;2022-08-19T07:49:12;94948.00;;;30.90;44.15
1954;BME280;977;42.704;23.354;2022-08-19T07:51:43;94960.69;;;30.67;43.67
1954;BME280;977;42.704;23.354;2022-08-19T07:54:09;94953.91;;;30.70;44.00
1954;BME280;977;42.704;23.354;2022-08-19T07:56:37;94959.75;;;30.63;43.91
1954;BME280;977;42.704;23.354;2022-08-19T07:59:02;94965.09;;;30.94;44.32
1954;BME280;977;42.704;23.354;2022-08-19T08:01:28;94959.56;;;30.91;42.88
1954;BME280;977;42.704;23.354;2022-08-19T08:03:55;94953.66;;;30.49;43.76
1954;BME280;977;42.704;23.354;2022-08-19T08:06:40;94961.59;;;30.85;44.27
1954;BME280;977;42.704;23.354;2022-08-19T08:09:35;94960.72;;;31.81;42.00
1954;BME280;977;42.704;23.354;2022-08-19T08:12:08;94959.47;;;32.40;40.46
1954;BME280;977;42.704;23.354;2022-08-19T08:14:44;94962.78;;;33.01;39.08
1954;BME280;977;42.704;23.354;2022-08-19T08:17:11;94956.56;;;33.39;38.19
1954;BME280;977;42.704;23.354;2022-08-19T08:19:38;94954.63;;;33.69;37.87
1954;BME280;977;42.704;23.354;2022-08-19T08:22:07;94935.38;;;34.00;37.26
1954;BME280;977;42.704;23.354;2022-08-19T08:24:33;94949.22;;;34.31;37.27
1954;BME280;977;42.704;23.354;2022-08-19T08:27:01;94934.66;;;34.57;35.96
1954;BME280;977;42.704;23.354;2022-08-19T08:29:28;94938.97;;;34.70;35.93
1954;BME280;977;42.704;23.354;2022-08-19T08:31:54;94954.09;;;34.83;35.50
1954;BME280;977;42.704;23.354;2022-08-19T08:34:20;94941.75;;;34.62;36.18
1954;BME280;977;42.704;23.354;2022-08-19T08:36:47;94931.38;;;34.97;35.71
1954;BME280;977;42.704;23.354;2022-08-19T08:39:15;94935.41;;;35.27;35.06
1954;BME280;977;42.704;23.354;2022-08-19T08:44:33;94936.78;;;35.21;35.03
1954;BME280;977;42.704;23.354;2022-08-19T08:47:13;94912.59;;;34.67;34.61
1954;BME280;977;42.704;23.354;2022-08-19T08:49:41;94927.16;;;34.75;35.22
1954;BME280;977;42.704;23.354;2022-08-19T08:52:31;94915.94;;;34.97;34.74
1954;BME280;977;42.704;23.354;2022-08-19T08:55:29;94914.28;;;35.45;34.81
1954;BME280;977;42.704;23.354;2022-08-19T08:58:03;94920.44;;;35.82;33.56
1954;BME280;977;42.704;23.354;2022-08-19T09:00:35;94921.41;;;36.02;32.64
1954;BME280;977;42.704;23.354;2022-08-19T09:03:15;94924.06;;;36.43;32.51
1954;BME280;977;42.704;23.354;2022-08-19T09:05:59;94907.31;;;36.41;32.38
1954;BME280;977;42.704;23.354;2022-08-19T09:14:15;94902.28;;;37.18;31.56
1954;BME280;977;42.704;23.354;2022-08-19T09:16:45;94916.09;;;37.29;30.99
1954;BME280;977;42.704;23.354;2022-08-19T09:19:10;94901.16;;;37.19;30.95
1954;BME280;977;42.704;23.354;2022-08-19T09:21:36;94902.00;;;37.39;30.38
1954;BME280;977;42.704;23.354;2022-08-19T09:24:06;94902.72;;;37.20;30.48
1954;BME280;977;42.704;23.354;2022-08-19T09:26:32;94889.41;;;37.15;30.07
1954;BME280;977;42.704;23.354;2022-08-19T09:29:02;94903.44;;;37.17;30.95
1954;BME280;977;42.704;23.354;2022-08-19T09:31:30;94879.59;;;37.62;30.41
1954;BME280;977;42.704;23.354;2022-08-19T09:33:58;94877.66;;;37.62;30.10
1954;BME280;977;42.704;23.354;2022-08-19T09:36:26;94900.28;;;37.85;28.77
1954;BME280;977;42.704;23.354;2022-08-19T09:39:02;94880.09;;;37.67;27.66
1954;BME280;977;42.704;23.354;2022-08-19T09:44:45;94890.28;;;37.90;26.70
1954;BME280;977;42.704;23.354;2022-08-19T09:47:21;94871.84;;;37.09;27.42
1954;BME280;977;42.704;23.354;2022-08-19T09:49:56;94874.84;;;37.04;27.44
1954;BME280;977;42.704;23.354;2022-08-19T09:52:25;94874.38;;;37.53;28.52
1954;BME280;977;42.704;23.354;2022-08-19T09:55:01;94883.53;;;37.83;27.98
1954;BME280;977;42.704;23.354;2022-08-19T09:57:43;94874.22;;;36.95;27.39
1954;BME280;977;42.704;23.354;2022-08-19T10:00:41;94856.25;;;37.06;27.99
1954;BME280;977;42.704;23.354;2022-08-19T10:03:23;94849.00;;;37.29;27.16
1954;BME280;977;42.704;23.354;2022-08-19T10:06:04;94867.09;;;37.57;27.93
1954;BME280;977;42.704;23.354;2022-08-19T10:08:59;94864.28;;;37.73;27.76
1954;BME280;977;42.704;23.354;2022-08-19T10:11:34;94845.84;;;38.01;27.82
1954;BME280;977;42.704;23.354;2022-08-19T10:14:28;94853.47;;;38.34;26.78
1954;BME280;977;42.704;23.354;2022-08-19T10:16:57;94852.31;;;38.81;26.29
1954;BME280;977;42.704;23.354;2022-08-19T10:19:30;94857.16;;;38.92;26.76
1954;BME280;977;42.704;23.354;2022-08-19T10:22:23;94848.63;;;38.93;26.34
1954;BME280;977;42.704;23.354;2022-08-19T10:25:11;94848.97;;;39.18;25.87
1954;BME280;977;42.704;23.354;2022-08-19T10:27:37;94850.09;;;38.64;25.91
1954;BME280;977;42.704;23.354;2022-08-19T10:30:12;94830.47;;;38.09;27.08
1954;BME280;977;42.704;23.354;2022-08-19T10:32:38;94838.28;;;37.91;27.83
1954;BME280;977;42.704;23.354;2022-08-19T10:35:07;94844.94;;;37.74;27.75
1954;BME280;977;42.704;23.354;2022-08-19T10:37:35;94837.97;;;37.77;27.37
1954;BME280;977;42.704;23.354;2022-08-19T10:40:07;94815.50;;;37.22;27.46
1954;BME280;977;42.704;23.354;2022-08-19T10:42:44;94818.50;;;37.52;27.47
1954;BME280;977;42.704;23.354;2022-08-19T10:45:34;94824.22;;;37.47;27.37
1954;BME280;977;42.704;23.354;2022-08-19T10:48:09;94816.78;;;37.08;27.98
1954;BME280;977;42.704;23.354;2022-08-19T10:50:53;94828.81;;;36.92;28.78
1954;BME280;977;42.704;23.354;2022-08-19T10:53:43;94820.25;;;36.42;28.81
1954;BME280;977;42.704;23.354;2022-08-19T10:56:12;94816.53;;;36.82;28.76
1954;BME280;977;42.704;23.354;2022-08-19T10:59:05;94815.69;;;36.62;28.30
1954;BME280;977;42.704;23.354;2022-08-19T11:01:34;94808.25;;;35.83;29.24
1954;BME280;977;42.704;23.354;2022-08-19T11:04:02;94808.22;;;35.96;29.05
1954;BME280;977;42.704;23.354;2022-08-19T11:06:33;94813.41;;;35.89;29.58
1954;BME280;977;42.704;23.354;2022-08-19T11:09:04;94808.41;;;36.03;29.21
1954;BME280;977;42.704;23.354;2022-08-19T11:11:31;94810.00;;;36.35;29.34
1954;BME280;977;42.704;23.354;2022-08-19T11:14:15;94792.78;;;36.28;29.51
1954;BME280;977;42.704;23.354;2022-08-19T11:17:06;94804.94;;;36.50;29.24
1954;BME280;977;42.704;23.354;2022-08-19T11:19:52;94798.22;;;36.44;29.05
1954;BME280;977;42.704;23.354;2022-08-19T11:22:24;94786.03;;;36.06;29.37
1954;BME280;977;42.704;23.354;2022-08-19T11:24:49;94794.34;;;36.29;29.32
1954;BME280;977;42.704;23.354;2022-08-19T11:27:15;94797.31;;;36.24;29.11
1954;BME280;977;42.704;23.354;2022-08-19T11:29:43;94795.47;;;36.12;29.35
1954;BME280;977;42.704;23.354;2022-08-19T11:32:10;94791.63;;;36.13;29.49
1954;BME280;977;42.704;23.354;2022-08-19T11:34:39;94786.22;;;36.29;29.25
1954;BME280;977;42.704;23.354;2022-08-19T11:37:13;94786.84;;;35.94;29.17
1954;BME280;977;42.704;23.354;2022-08-19T11:39:44;94781.72;;;35.61;29.99
1954;BME280;977;42.704;23.354;2022-08-19T11:42:10;94763.75;;;35.69;29.95
1954;BME280;977;42.704;23.354;2022-08-19T11:44:54;94773.19;;;36.03;29.31
1954;BME280;977;42.704;23.354;2022-08-19T11:47:19;94789.19;;;36.40;29.23
1954;BME280;977;42.704;23.354;2022-08-19T11:49:51;94759.75;;;35.94;29.10
1954;BME280;977;42.704;23.354;2022-08-19T11:52:16;94784.72;;;36.16;29.37
1954;BME280;977;42.704;23.354;2022-08-19T11:54:45;94755.72;;;36.00;29.06
1954;BME280;977;42.704;23.354;2022-08-19T11:57:20;94761.19;;;36.35;29.04
1954;BME280;977;42.704;23.354;2022-08-19T11:59:50;94777.78;;;36.81;29.13
1954;BME280;977;42.704;23.354;2022-08-19T12:02:19;94761.56;;;37.01;28.40
1954;BME280;977;42.704;23.354;2022-08-19T12:04:51;94767.56;;;36.27;29.28
1954;BME280;977;42.704;23.354;2022-08-19T12:07:19;94763.97;;;35.92;29.38
1954;BME280;977;42.704;23.354;2022-08-19T12:09:55;94755.13;;;35.79;29.91
1954;BME280;977;42.704;23.354;2022-08-19T12:12:30;94745.84;;;35.80;29.54
1954;BME280;977;42.704;23.354;2022-08-19T12:15:08;94736.91;;;36.07;29.50
1954;BME280;977;42.704;23.354;2022-08-19T12:21:43;94725.09;;;36.82;31.13
1954;BME280;977;42.704;23.354;2022-08-19T12:27:39;94730.19;;;36.33;29.99
1954;BME280;977;42.704;23.354;2022-08-19T12:30:17;94730.88;;;36.30;29.46
1954;BME280;977;42.704;23.354;2022-08-19T12:32:55;94738.56;;;35.96;30.76
1954;BME280;977;42.704;23.354;2022-08-19T12:35:27;94729.66;;;35.52;29.63
1954;BME280;977;42.704;23.354;2022-08-19T12:37:56;94711.25;;;35.01;31.37
1954;BME280;977;42.704;23.354;2022-08-19T12:40:23;94727.56;;;35.05;35.15
1954;BME280;977;42.704;23.354;2022-08-19T12:42:51;94717.09;;;34.91;33.45
1954;BME280;977;42.704;23.354;2022-08-19T12:45:20;94699.53;;;34.85;33.77
1954;BME280;977;42.704;23.354;2022-08-19T12:47:53;94704.09;;;35.09;35.49
1954;BME280;977;42.704;23.354;2022-08-19T12:53:19;94698.31;;;35.23;31.48
1954;BME280;977;42.704;23.354;2022-08-19T12:56:04;94702.56;;;34.96;31.35
1954;BME280;977;42.704;23.354;2022-08-19T12:58:48;94715.00;;;34.97;30.90
1954;BME280;977;42.704;23.354;2022-08-19T13:01:26;94693.09;;;34.90;31.52
1954;BME280;977;42.704;23.354;2022-08-19T13:03:56;94684.13;;;35.14;34.42
1954;BME280;977;42.704;23.354;2022-08-19T13:06:28;94705.34;;;35.40;32.20
1954;BME280;977;42.704;23.354;2022-08-19T13:08:54;94700.50;;;35.33;30.33
1954;BME280;977;42.704;23.354;2022-08-19T13:11:53;94693.78;;;35.27;30.13
1954;BME280;977;42.704;23.354;2022-08-19T13:14:39;94692.56;;;34.96;30.49
1954;BME280;977;42.704;23.354;2022-08-19T13:17:10;94704.84;;;34.81;30.46
1954;BME280;977;42.704;23.354;2022-08-19T13:19:37;94682.03;;;34.42;30.64
1954;BME280;977;42.704;23.354;2022-08-19T13:22:05;94675.66;;;34.47;31.02
1954;BME280;977;42.704;23.354;2022-08-19T13:24:33;94692.28;;;34.61;31.83
1954;BME280;977;42.704;23.354;2022-08-19T13:27:07;94678.16;;;34.80;30.94
1954;BME280;977;42.704;23.354;2022-08-19T13:29:41;94677.31;;;35.04;31.12
1954;BME280;977;42.704;23.354;2022-08-19T13:32:28;94688.97;;;35.20;31.06
1954;BME280;977;42.704;23.354;2022-08-19T13:35:14;94670.81;;;35.21;30.84
1954;BME280;977;42.704;23.354;2022-08-19T13:37:43;94664.41;;;35.13;31.06
1954;BME280;977;42.704;23.354;2022-08-19T13:40:28;94663.75;;;35.16;30.55
1954;BME280;977;42.704;23.354;2022-08-19T13:43:06;94680.84;;;35.20;30.38
1954;BME280;977;42.704;23.354;2022-08-19T13:45:36;94661.03;;;34.76;30.65
1954;BME280;977;42.704;23.354;2022-08-19T13:48:06;94651.31;;;34.34;30.71
1954;BME280;977;42.704;23.354;2022-08-19T13:50:38;94672.03;;;34.30;30.76
1954;BME280;977;42.704;23.354;2022-08-19T13:53:04;94652.56;;;34.25;31.88
1954;BME280;977;42.704;23.354;2022-08-19T13:55:32;94656.59;;;34.43;31.82
1954;BME280;977;42.704;23.354;2022-08-19T13:58:06;94653.22;;;34.34;30.97
1954;BME280;977;42.704;23.354;2022-08-19T14:00:38;94656.16;;;34.41;31.32